Time;durP1;ratioP1;P1;durP2;ratioP2;P2;SDS_P1;SDS_P2;PMS_P1;PMS_P2;Temp;Humidity;BMP_temperature;BMP_pressure;BME280_temperature;BME280_humidity;BME280_pressure;Samples;Min_cycle;Max_cycle;Signal;HPM_P1;HPM_P2
2023/10/09 00:03:00;;;;;;;3.03;2.73;;;11.80;99.90;;;;;;4954359;28;20498;-66
2023/10/09 00:05:39;;;;;;;3.27;2.97;;;11.80;99.90;;;;;;4973031;28;20503;-66
2023/10/09 00:08:09;;;;;;;3.50;2.73;;;11.80;99.90;;;;;;4981374;28;20480;-67
2023/10/09 00:10:45;;;;;;;3.10;2.80;;;11.80;99.90;;;;;;4979288;28;20473;-66
2023/10/09 00:13:15;;;;;;;2.70;2.50;;;11.70;99.90;;;;;;4979478;28;20550;-66
2023/10/09 00:15:44;;;;;;;3.93;2.60;;;11.70;99.90;;;;;;4977186;28;21523;-66
2023/10/09 00:18:14;;;;;;;3.23;2.67;;;11.70;99.90;;;;;;4975122;28;20583;-66
2023/10/09 00:20:44;;;;;;;3.83;2.37;;;11.70;99.90;;;;;;4978069;28;21169;-66
2023/10/09 00:23:15;;;;;;;5.40;2.70;;;11.70;99.90;;;;;;4974366;28;20598;-66
2023/10/09 00:26:07;;;;;;;2.70;2.50;;;11.60;99.90;;;;;;4971096;28;20503;-66
2023/10/09 00:28:41;;;;;;;2.80;2.50;;;11.60;99.90;;;;;;4975727;28;20966;-68
2023/10/09 00:31:14;;;;;;;3.23;2.67;;;11.70;99.90;;;;;;4974059;28;20595;-67
2023/10/09 00:33:43;;;;;;;2.97;2.70;;;11.60;99.90;;;;;;4977700;28;20497;-66
2023/10/09 00:36:14;;;;;;;3.10;2.83;;;11.60;99.90;;;;;;4977858;28;20713;-67
2023/10/09 00:38:45;;;;;;;2.63;2.43;;;11.60;99.90;;;;;;4979739;28;20500;-66
2023/10/09 00:41:20;;;;;;;2.40;2.20;;;11.60;99.90;;;;;;4976967;28;21030;-66
2023/10/09 00:43:50;;;;;;;2.67;2.33;;;11.60;99.90;;;;;;4977362;28;21132;-68
2023/10/09 00:46:24;;;;;;;3.70;2.57;;;11.60;99.90;;;;;;4972694;28;20551;-66
2023/10/09 00:48:55;;;;;;;2.70;2.10;;;11.60;99.90;;;;;;4973672;28;20512;-67
2023/10/09 00:51:26;;;;;;;3.50;2.53;;;11.50;99.90;;;;;;4974291;28;20532;-66
2023/10/09 00:53:59;;;;;;;3.20;2.40;;;11.60;99.90;;;;;;4973749;28;20512;-66
2023/10/09 00:56:38;;;;;;;3.70;3.00;;;11.60;99.90;;;;;;4971661;28;21140;-66
2023/10/09 00:59:14;;;;;;;3.10;2.80;;;11.50;99.90;;;;;;4972592;28;20493;-67
2023/10/09 01:01:48;;;;;;;3.87;2.37;;;11.50;99.90;;;;;;4975989;28;20599;-67
2023/10/09 01:04:17;;;;;;;3.27;2.97;;;11.50;99.90;;;;;;4977799;28;20478;-67
2023/10/09 01:06:53;;;;;;;2.87;2.37;;;11.50;99.90;;;;;;4971767;28;20594;-66
2023/10/09 01:09:22;;;;;;;2.87;2.60;;;11.50;99.90;;;;;;4975343;28;20468;-67
2023/10/09 01:12:03;;;;;;;3.23;2.50;;;11.50;99.90;;;;;;4975426;28;20473;-67
2023/10/09 01:14:36;;;;;;;2.53;2.33;;;11.40;99.90;;;;;;4975270;28;20580;-66
2023/10/09 01:17:08;;;;;;;2.50;2.30;;;11.40;99.90;;;;;;4972485;28;20579;-66
2023/10/09 01:19:37;;;;;;;2.47;2.27;;;11.40;99.90;;;;;;4965408;28;20508;-66
2023/10/09 01:22:12;;;;;;;2.30;2.10;;;11.40;99.90;;;;;;4973258;28;20846;-67
2023/10/09 01:24:43;;;;;;;3.53;2.90;;;11.40;99.90;;;;;;4969588;28;24348;-67
2023/10/09 01:27:14;;;;;;;2.37;1.93;;;11.40;99.90;;;;;;4971617;28;20564;-67
2023/10/09 01:29:45;;;;;;;2.50;2.27;;;11.40;99.90;;;;;;4970776;28;20462;-67
2023/10/09 01:32:18;;;;;;;2.40;2.00;;;11.40;99.90;;;;;;4968083;28;20492;-67
2023/10/09 01:34:49;;;;;;;3.83;2.60;;;11.30;99.90;;;;;;4976608;28;20489;-67
2023/10/09 01:37:22;;;;;;;2.10;1.97;;;11.40;99.90;;;;;;4980907;28;20469;-68
2023/10/09 01:39:52;;;;;;;3.13;2.50;;;11.40;99.90;;;;;;4978261;28;20599;-67
2023/10/09 01:42:27;;;;;;;2.40;2.20;;;11.30;99.90;;;;;;4977440;28;20487;-66
2023/10/09 01:44:58;;;;;;;4.60;2.27;;;11.20;99.90;;;;;;4975039;28;20476;-67
2023/10/09 01:47:31;;;;;;;2.33;1.90;;;11.20;99.90;;;;;;4976602;28;20477;-69
2023/10/09 01:50:04;;;;;;;3.10;2.23;;;11.20;99.90;;;;;;4972724;28;20620;-67
2023/10/09 01:52:33;;;;;;;3.63;2.27;;;11.20;99.90;;;;;;4974389;28;20485;-67
2023/10/09 01:55:27;;;;;;;4.27;2.40;;;11.20;99.90;;;;;;4978396;28;20528;-67
2023/10/09 01:57:53;;;;;;;3.50;2.70;;;11.20;99.90;;;;;;4977794;28;20981;-67
2023/10/09 02:00:24;;;;;;;2.53;2.07;;;11.20;99.90;;;;;;4978985;28;20465;-67
2023/10/09 02:02:52;;;;;;;2.50;2.03;;;11.20;99.90;;;;;;4976536;28;21072;-69
2023/10/09 02:05:26;;;;;;;5.00;2.50;;;11.20;99.90;;;;;;4973781;28;21038;-67
2023/10/09 02:07:54;;;;;;;3.03;1.90;;;11.20;99.90;;;;;;4979776;28;20981;-67
2023/10/09 02:10:31;;;;;;;2.60;2.17;;;11.10;99.90;;;;;;4975236;28;20556;-67
2023/10/09 02:13:06;;;;;;;4.33;2.33;;;11.10;99.90;;;;;;4976530;28;20501;-67
2023/10/09 02:15:45;;;;;;;2.63;1.90;;;11.10;99.90;;;;;;4972645;28;21111;-67
2023/10/09 02:18:25;;;;;;;3.67;1.77;;;11.10;99.90;;;;;;4973555;28;20898;-67
2023/10/09 02:21:12;;;;;;;2.40;2.03;;;11.10;99.90;;;;;;4974481;28;20938;-67
2023/10/09 02:23:45;;;;;;;2.20;1.90;;;11.10;99.90;;;;;;4975820;28;21081;-69
2023/10/09 02:26:19;;;;;;;2.67;1.90;;;11.10;99.90;;;;;;4975053;28;20489;-66
2023/10/09 02:28:58;;;;;;;4.40;2.03;;;11.00;99.90;;;;;;4977822;28;20468;-67
2023/10/09 02:31:27;;;;;;;3.17;1.90;;;11.00;99.90;;;;;;4973049;28;20476;-66
2023/10/09 02:33:56;;;;;;;3.50;2.30;;;11.10;99.90;;;;;;4973198;28;20504;-67
2023/10/09 02:36:28;;;;;;;2.60;2.40;;;11.10;99.90;;;;;;4972613;28;20485;-67
2023/10/09 02:38:56;;;;;;;3.13;2.00;;;11.10;99.90;;;;;;4976320;28;21030;-68
2023/10/09 02:41:28;;;;;;;2.33;2.07;;;11.10;99.90;;;;;;4976822;28;20938;-66
2023/10/09 02:43:58;;;;;;;4.40;2.50;;;11.10;99.90;;;;;;4973525;28;20492;-67
2023/10/09 02:46:34;;;;;;;2.07;1.83;;;11.10;99.90;;;;;;4974883;28;20560;-67
2023/10/09 02:49:06;;;;;;;3.67;2.13;;;11.00;99.90;;;;;;4976392;28;21175;-67
2023/10/09 02:51:41;;;;;;;2.33;1.87;;;11.10;99.90;;;;;;4969126;28;20487;-67
2023/10/09 02:54:18;;;;;;;2.77;2.03;;;11.10;99.90;;;;;;4975940;28;20712;-67
2023/10/09 02:56:55;;;;;;;3.30;2.20;;;11.00;99.90;;;;;;4975441;28;20584;-67
2023/10/09 02:59:24;;;;;;;3.17;2.10;;;11.00;99.90;;;;;;4975758;28;20500;-67
2023/10/09 03:01:53;;;;;;;2.20;2.00;;;11.00;99.90;;;;;;4979926;28;20526;-67
2023/10/09 03:04:23;;;;;;;3.20;2.50;;;11.00;99.90;;;;;;4969849;28;20560;-67
2023/10/09 03:06:57;;;;;;;3.73;2.13;;;10.90;99.90;;;;;;4952316;28;20489;-68
2023/10/09 03:09:30;;;;;;;2.77;2.30;;;10.90;99.90;;;;;;4952248;28;20480;-69
2023/10/09 03:12:03;;;;;;;2.80;2.27;;;10.90;99.90;;;;;;4952169;28;20505;-66
2023/10/09 03:14:35;;;;;;;3.03;2.10;;;10.90;99.90;;;;;;4957178;28;20759;-67
2023/10/09 03:17:03;;;;;;;2.97;2.33;;;10.90;99.90;;;;;;4974302;28;21008;-67
2023/10/09 03:19:37;;;;;;;2.00;1.80;;;10.90;99.90;;;;;;4976885;28;20495;-67
2023/10/09 03:22:09;;;;;;;3.57;2.20;;;10.90;99.90;;;;;;4975285;28;21041;-66
2023/10/09 03:24:37;;;;;;;2.60;2.00;;;10.90;99.90;;;;;;4972077;28;20977;-67
2023/10/09 03:27:06;;;;;;;3.50;2.50;;;10.90;99.90;;;;;;4960214;28;20477;-68
2023/10/09 03:29:35;;;;;;;2.47;1.90;;;10.90;99.90;;;;;;4959010;28;21033;-67
2023/10/09 03:32:03;;;;;;;2.50;2.30;;;10.90;99.90;;;;;;4958332;28;20529;-67
2023/10/09 03:34:31;;;;;;;2.20;1.93;;;10.90;99.90;;;;;;4961150;28;20599;-68
2023/10/09 03:37:21;;;;;;;1.97;1.87;;;10.90;99.90;;;;;;4974394;28;20469;-68
2023/10/09 03:39:51;;;;;;;2.23;2.00;;;10.90;99.90;;;;;;4977917;28;20603;-68
2023/10/09 03:42:22;;;;;;;2.83;2.30;;;10.90;99.90;;;;;;4973753;28;21034;-68
2023/10/09 03:44:53;;;;;;;2.57;2.20;;;10.90;99.90;;;;;;4973863;28;20579;-67
2023/10/09 03:47:22;;;;;;;3.70;1.80;;;10.80;99.90;;;;;;4973860;28;20473;-68
2023/10/09 03:49:53;;;;;;;2.50;2.27;;;10.80;99.90;;;;;;4976014;28;20552;-68
2023/10/09 03:52:25;;;;;;;2.50;1.97;;;10.80;99.90;;;;;;4971381;28;20488;-67
2023/10/09 03:54:54;;;;;;;2.10;1.90;;;10.80;99.90;;;;;;4966062;28;20487;-68
2023/10/09 03:57:24;;;;;;;3.40;2.00;;;10.80;99.90;;;;;;4950840;28;20474;-68
2023/10/09 03:59:55;;;;;;;1.63;1.53;;;10.70;99.90;;;;;;4952895;28;20589;-67
2023/10/09 04:02:23;;;;;;;3.17;2.13;;;10.70;99.90;;;;;;4954442;28;20478;-67
2023/10/09 04:04:51;;;;;;;3.77;2.13;;;10.80;99.90;;;;;;4963466;28;20796;-67
2023/10/09 04:07:21;;;;;;;2.10;1.90;;;10.70;99.90;;;;;;4971349;28;20887;-67
2023/10/09 04:10:02;;;;;;;2.67;2.23;;;10.70;99.90;;;;;;4976373;28;20477;-67
2023/10/09 04:12:33;;;;;;;3.60;2.00;;;10.70;99.90;;;;;;4979799;28;21077;-67
2023/10/09 04:15:04;;;;;;;2.83;1.97;;;10.70;99.90;;;;;;4972353;28;21633;-67
2023/10/09 04:17:36;;;;;;;2.27;1.80;;;10.70;99.90;;;;;;4975681;28;20469;-69
2023/10/09 04:22:51;;;;;;;3.07;2.00;;;10.70;99.90;;;;;;4979617;28;20500;-67
2023/10/09 04:25:26;;;;;;;5.50;2.20;;;10.70;99.90;;;;;;4978333;28;21061;-67
2023/10/09 04:28:08;;;;;;;3.40;2.10;;;10.70;99.90;;;;;;4980318;28;20479;-67
2023/10/09 04:30:40;;;;;;;2.90;2.10;;;10.70;99.90;;;;;;4976187;28;20902;-67
2023/10/09 04:33:27;;;;;;;2.60;2.17;;;10.70;99.90;;;;;;4978595;28;21073;-67
2023/10/09 04:38:55;;;;;;;2.60;2.10;;;10.60;99.90;;;;;;4956780;28;20465;-68
2023/10/09 04:41:33;;;;;;;2.03;1.83;;;10.60;99.90;;;;;;4961925;28;20914;-69
2023/10/09 04:44:18;;;;;;;2.80;2.53;;;10.70;99.90;;;;;;4958692;28;20513;-67
2023/10/09 04:47:18;;;;;;;3.47;2.00;;;10.60;99.90;;;;;;4976496;28;20476;-67
2023/10/09 04:50:01;;;;;;;3.73;2.70;;;10.60;99.90;;;;;;4978919;28;20472;-67
2023/10/09 04:55:19;;;;;;;3.70;2.13;;;10.60;99.90;;;;;;4975106;28;20562;-67
2023/10/09 04:58:00;;;;;;;2.37;1.80;;;10.60;99.90;;;;;;4975527;28;20607;-67
2023/10/09 05:01:02;;;;;;;2.73;1.90;;;10.60;99.90;;;;;;4974081;28;20602;-69
2023/10/09 05:03:42;;;;;;;2.43;2.10;;;10.60;99.90;;;;;;4981048;28;20497;-69
2023/10/09 05:09:07;;;;;;;2.77;2.00;;;10.60;99.90;;;;;;4986519;28;20568;-70
2023/10/09 05:11:53;;;;;;;2.30;2.10;;;10.60;99.90;;;;;;4982679;28;20469;-66
2023/10/09 05:14:38;;;;;;;2.13;1.93;;;10.60;99.90;;;;;;4978251;28;20500;-66
2023/10/09 05:17:15;;;;;;;3.00;2.20;;;10.60;99.90;;;;;;4970690;28;20469;-67
2023/10/09 05:19:54;;;;;;;1.73;1.63;;;10.60;99.90;;;;;;4955400;28;20606;-67
2023/10/09 05:25:30;;;;;;;2.90;1.90;;;10.50;99.90;;;;;;4977640;28;20496;-68
2023/10/09 05:28:24;;;;;;;1.70;1.60;;;10.60;99.90;;;;;;4976829;28;20485;-67
2023/10/09 05:30:55;;;;;;;2.80;1.90;;;10.50;99.90;;;;;;4979562;28;20473;-68
2023/10/09 05:33:36;;;;;;;3.17;2.03;;;10.50;99.90;;;;;;4980083;28;20514;-67
2023/10/09 05:36:14;;;;;;;3.27;2.13;;;10.50;99.90;;;;;;4960985;28;20577;-67
2023/10/09 05:38:46;;;;;;;2.60;2.30;;;10.50;99.90;;;;;;4953162;28;20833;-67
2023/10/09 05:41:46;;;;;;;3.60;2.20;;;10.50;99.90;;;;;;4954176;28;20879;-67
2023/10/09 05:50:33;;;;;;;4.17;2.80;;;10.50;99.90;;;;;;4929564;28;20470;-67
2023/10/09 05:53:05;;;;;;;2.93;2.33;;;10.40;99.90;;;;;;4932506;29;20629;-68
2023/10/09 06:04:15;;;;;;;3.90;2.60;;;10.50;99.90;;;;;;4931977;28;20486;-68
2023/10/09 06:06:45;;;;;;;2.80;2.13;;;10.50;99.90;;;;;;4956025;28;20992;-68
2023/10/09 06:09:49;;;;;;;3.73;2.73;;;10.50;99.90;;;;;;4961961;28;20473;-68
2023/10/09 06:12:49;;;;;;;3.90;2.50;;;10.40;99.90;;;;;;4959257;28;20536;-68
2023/10/09 06:26:25;;;;;;;2.57;2.30;;;10.30;99.90;;;;;;4954713;28;20490;-68
2023/10/09 06:29:14;;;;;;;4.10;3.17;;;10.30;99.90;;;;;;4957902;28;20560;-68
2023/10/09 06:32:15;;;;;;;3.93;3.23;;;10.30;99.90;;;;;;4963060;28;20473;-65
2023/10/09 06:34:46;;;;;;;3.63;2.37;;;10.30;99.90;;;;;;4954869;28;20584;-65
2023/10/09 06:42:55;;;;;;;2.40;2.20;;;10.20;99.90;;;;;;4958524;28;21386;-66
2023/10/09 06:45:43;;;;;;;2.20;2.00;;;10.20;99.90;;;;;;4960021;28;21951;-65
2023/10/09 06:50:58;;;;;;;3.10;2.67;;;10.20;99.90;;;;;;4960365;28;20461;-65
2023/10/09 06:53:28;;;;;;;3.10;2.73;;;10.20;99.90;;;;;;4957989;28;20600;-66
2023/10/09 06:56:05;;;;;;;2.87;2.60;;;10.20;99.90;;;;;;4958194;28;20574;-65
2023/10/09 06:58:41;;;;;;;3.30;2.40;;;10.10;99.90;;;;;;4957666;28;20477;-65
2023/10/09 07:01:28;;;;;;;4.53;2.57;;;10.10;99.90;;;;;;4963010;28;20527;-66
2023/10/09 07:03:59;;;;;;;3.10;2.80;;;10.10;99.90;;;;;;4957320;28;20865;-66
2023/10/09 07:09:19;;;;;;;3.43;2.67;;;10.10;99.90;;;;;;4961077;28;20478;-66
2023/10/09 07:12:00;;;;;;;3.20;2.83;;;10.10;99.90;;;;;;4959391;28;20505;-66
2023/10/09 07:17:23;;;;;;;3.70;3.40;;;10.10;99.90;;;;;;4955736;28;20474;-66
2023/10/09 07:20:09;;;;;;;4.33;3.53;;;10.10;99.90;;;;;;4956824;28;20572;-68
2023/10/09 07:22:52;;;;;;;4.40;4.00;;;10.10;99.90;;;;;;4957545;28;20474;-66
2023/10/09 07:25:41;;;;;;;5.27;3.60;;;10.10;99.90;;;;;;4955130;28;20773;-66
2023/10/09 07:28:36;;;;;;;4.27;3.80;;;10.20;99.90;;;;;;4961456;28;20561;-66
2023/10/09 07:31:08;;;;;;;5.30;4.70;;;10.20;99.90;;;;;;4957535;28;20470;-66
2023/10/09 07:36:37;;;;;;;4.20;3.80;;;10.20;99.90;;;;;;5067468;27;20924;-66
2023/10/09 07:39:14;;;;;;;4.67;4.17;;;10.20;99.90;;;;;;5054370;28;20531;-69
2023/10/09 07:41:56;;;;;;;4.43;4.03;;;10.20;99.90;;;;;;5057052;28;20468;-67
2023/10/09 07:44:42;;;;;;;4.07;3.47;;;10.20;99.90;;;;;;5057847;28;20493;-69
2023/10/09 07:47:16;;;;;;;5.30;4.53;;;10.20;99.90;;;;;;5042718;28;20502;-67
2023/10/09 07:49:52;;;;;;;4.50;4.10;;;10.20;99.90;;;;;;5033966;28;21010;-67
2023/10/09 07:52:22;;;;;;;6.20;4.20;;;10.20;99.90;;;;;;5032976;28;20467;-67
2023/10/09 07:54:52;;;;;;;4.17;3.70;;;10.20;99.90;;;;;;5034698;28;20532;-67
2023/10/09 07:57:28;;;;;;;5.70;4.47;;;10.20;99.90;;;;;;5040317;28;20487;-67
2023/10/09 08:00:12;;;;;;;4.43;4.03;;;10.20;99.90;;;;;;5037400;28;20482;-66
2023/10/09 08:02:41;;;;;;;4.20;3.87;;;10.30;99.90;;;;;;5033162;28;20481;-67
2023/10/09 08:05:19;;;;;;;4.43;4.10;;;10.30;99.90;;;;;;5031874;28;20497;-67
2023/10/09 08:07:57;;;;;;;4.67;4.27;;;10.30;99.90;;;;;;5030626;28;20462;-69
2023/10/09 08:16:21;;;;;;;4.50;4.10;;;10.40;99.90;;;;;;4998132;28;20484;-66
2023/10/09 08:18:51;;;;;;;4.60;4.20;;;10.50;99.90;;;;;;5031537;28;20472;-67
2023/10/09 08:21:41;;;;;;;5.30;4.40;;;10.50;99.90;;;;;;5033541;28;20482;-67
2023/10/09 08:24:35;;;;;;;4.40;4.00;;;10.50;99.90;;;;;;5034323;28;20737;-68
2023/10/09 08:30:12;;;;;;;4.00;3.60;;;10.50;99.90;;;;;;5037523;28;20473;-67
2023/10/09 08:32:42;;;;;;;3.90;3.60;;;10.50;99.90;;;;;;5034291;28;20482;-67
2023/10/09 08:35:29;;;;;;;4.33;3.93;;;10.60;99.90;;;;;;5038783;28;20494;-67
2023/10/09 08:38:00;;;;;;;4.40;4.00;;;10.50;99.90;;;;;;5040281;28;20473;-67
2023/10/09 08:40:37;;;;;;;4.10;3.80;;;10.50;99.90;;;;;;5032189;28;20474;-67
2023/10/09 08:43:10;;;;;;;3.90;3.50;;;10.50;99.90;;;;;;5036730;28;20494;-67
2023/10/09 08:45:40;;;;;;;3.83;3.50;;;10.60;99.90;;;;;;5032715;28;20489;-67
2023/10/09 08:48:15;;;;;;;4.37;3.97;;;10.60;99.90;;;;;;5015470;28;21094;-68
2023/10/09 08:50:44;;;;;;;3.77;3.47;;;10.60;99.90;;;;;;5023482;28;20502;-68
2023/10/09 08:53:13;;;;;;;4.60;4.20;;;10.70;99.90;;;;;;5021660;28;20503;-68
2023/10/09 08:55:43;;;;;;;4.50;4.10;;;10.70;99.90;;;;;;5018473;28;20863;-67
2023/10/09 08:58:19;;;;;;;4.67;4.27;;;10.70;99.90;;;;;;5024576;28;20476;-67
2023/10/09 09:00:47;;;;;;;7.00;6.40;;;10.70;99.90;;;;;;5025201;28;21278;-67
2023/10/09 09:03:16;;;;;;;5.07;4.37;;;10.70;99.90;;;;;;5026513;28;20499;-67
2023/10/09 09:05:49;;;;;;;5.13;4.60;;;10.70;99.90;;;;;;5019342;28;20491;-68
2023/10/09 09:08:25;;;;;;;5.43;4.93;;;10.70;99.90;;;;;;5026729;28;21138;-68
2023/10/09 09:11:05;;;;;;;5.80;5.30;;;10.80;99.90;;;;;;5020111;28;20498;-67
2023/10/09 09:13:34;;;;;;;6.00;4.90;;;10.80;99.90;;;;;;5021006;28;20482;-68
2023/10/09 09:16:02;;;;;;;6.20;5.60;;;10.90;99.90;;;;;;5024274;28;20929;-68
2023/10/09 09:18:36;;;;;;;6.13;5.63;;;10.90;99.90;;;;;;5023473;28;20476;-68
2023/10/09 09:21:22;;;;;;;6.10;5.50;;;10.80;99.90;;;;;;5032600;28;20895;-66
2023/10/09 09:23:58;;;;;;;5.83;5.43;;;10.90;99.90;;;;;;5023094;28;20593;-67
2023/10/09 09:26:44;;;;;;;5.63;5.20;;;10.90;99.90;;;;;;5024855;28;20592;-67
2023/10/09 09:29:14;;;;;;;5.37;4.87;;;10.90;99.90;;;;;;5019542;28;20475;-68
2023/10/09 09:31:53;;;;;;;5.23;4.83;;;10.90;99.90;;;;;;5026161;28;20567;-67
2023/10/09 09:34:25;;;;;;;4.73;4.33;;;10.90;99.90;;;;;;5023142;28;20572;-67
2023/10/09 09:36:55;;;;;;;4.30;3.83;;;11.00;99.90;;;;;;5020894;28;20479;-67
2023/10/09 09:39:27;;;;;;;5.40;4.70;;;11.00;99.90;;;;;;5021367;28;20561;-68
2023/10/09 09:42:13;;;;;;;5.07;4.67;;;11.00;99.90;;;;;;5022878;28;20486;-67
2023/10/09 09:44:45;;;;;;;4.50;4.10;;;11.00;99.90;;;;;;5024153;28;20490;-67
2023/10/09 09:47:23;;;;;;;4.57;4.00;;;11.10;99.90;;;;;;5026356;28;21080;-67
2023/10/09 09:49:59;;;;;;;4.97;4.47;;;11.10;99.90;;;;;;5025760;28;20463;-67
2023/10/09 09:52:38;;;;;;;4.80;4.30;;;11.10;99.90;;;;;;5016735;28;20511;-67
2023/10/09 09:55:14;;;;;;;4.20;3.90;;;11.10;99.90;;;;;;5023596;28;20485;-67
2023/10/09 09:57:45;;;;;;;4.70;4.30;;;11.10;99.90;;;;;;5019368;28;20477;-67
2023/10/09 10:00:29;;;;;;;6.30;5.70;;;11.10;99.90;;;;;;5020410;28;20463;-67
2023/10/09 10:03:02;;;;;;;4.40;4.00;;;11.10;99.90;;;;;;5026439;28;20497;-67
2023/10/09 10:05:31;;;;;;;5.57;5.17;;;11.20;99.90;;;;;;5021052;28;20495;-67
2023/10/09 10:08:00;;;;;;;4.40;4.00;;;11.10;99.90;;;;;;5025632;28;20910;-67
2023/10/09 10:10:39;;;;;;;4.60;4.20;;;11.20;99.90;;;;;;5023191;28;20961;-67
2023/10/09 10:13:14;;;;;;;5.23;4.77;;;11.20;99.90;;;;;;5021385;28;20491;-67
2023/10/09 10:16:13;;;;;;;4.63;4.20;;;11.20;99.90;;;;;;5026682;28;20478;-68
2023/10/09 10:19:21;;;;;;;3.73;3.43;;;11.20;99.90;;;;;;4976706;28;20483;-67
2023/10/09 10:21:49;;;;;;;5.63;5.13;;;11.20;99.90;;;;;;5023575;28;20971;-67
2023/10/09 10:24:54;;;;;;;5.83;5.33;;;11.30;99.90;;;;;;5026389;28;20479;-67
2023/10/09 10:27:27;;;;;;;3.80;3.50;;;11.30;99.90;;;;;;5024569;28;20508;-67
2023/10/09 10:30:36;;;;;;;3.80;3.50;;;11.30;99.90;;;;;;5024621;28;20466;-67
2023/10/09 10:33:12;;;;;;;4.50;4.10;;;11.30;99.90;;;;;;5019947;28;21026;-68
2023/10/09 10:35:45;;;;;;;5.07;4.67;;;11.30;99.90;;;;;;5021672;28;20582;-67
2023/10/09 10:38:34;;;;;;;6.73;6.20;;;11.40;99.90;;;;;;5022929;28;20471;-67
2023/10/09 10:41:16;;;;;;;7.00;6.40;;;11.40;99.90;;;;;;5020293;28;20857;-67
2023/10/09 10:44:33;;;;;;;4.17;3.87;;;11.40;99.90;;;;;;5029370;28;20503;-66
2023/10/09 10:46:52;;;;;;;5.30;4.90;;;11.40;99.90;;;;;;5018177;28;21999;-67
2023/10/09 10:49:22;;;;;;;4.50;4.10;;;11.50;99.90;;;;;;5011867;28;20471;-66
2023/10/09 10:52:01;;;;;;;3.63;3.33;;;11.50;99.90;;;;;;5006428;28;21031;-67
2023/10/09 10:55:05;;;;;;;3.20;3.00;;;11.50;99.90;;;;;;5015162;28;20580;-67
2023/10/09 10:57:53;;;;;;;3.33;3.03;;;11.50;99.90;;;;;;5023116;28;20467;-67
2023/10/09 11:03:19;;;;;;;3.60;3.40;;;11.50;99.90;;;;;;5018766;28;20500;-66
2023/10/09 11:05:51;;;;;;;3.27;3.07;;;11.50;99.90;;;;;;5012711;28;20483;-67
2023/10/09 11:08:27;;;;;;;3.10;2.80;;;11.60;99.90;;;;;;5015931;28;20553;-68
2023/10/09 11:11:15;;;;;;;3.17;2.97;;;11.60;99.90;;;;;;5020233;28;20598;-66
2023/10/09 11:13:56;;;;;;;2.70;2.50;;;11.60;99.90;;;;;;5016949;28;20502;-67
2023/10/09 11:16:41;;;;;;;3.00;2.80;;;11.60;99.90;;;;;;5017376;28;20907;-67
2023/10/09 11:19:32;;;;;;;2.97;2.70;;;11.60;99.90;;;;;;5017352;28;21247;-67
2023/10/09 11:25:11;;;;;;;3.57;3.27;;;11.60;99.90;;;;;;5013572;28;21164;-67
2023/10/09 11:27:50;;;;;;;3.77;3.47;;;11.60;99.90;;;;;;5012478;28;20499;-66
2023/10/09 11:30:26;;;;;;;3.30;3.00;;;11.70;99.90;;;;;;5015044;28;20466;-68
2023/10/09 11:33:14;;;;;;;4.30;4.00;;;11.70;99.90;;;;;;5019762;28;20822;-66
2023/10/09 11:35:56;;;;;;;3.53;3.23;;;11.70;99.90;;;;;;5018670;28;20495;-68
2023/10/09 11:38:25;;;;;;;4.00;3.70;;;11.70;99.90;;;;;;5013150;28;20471;-66
2023/10/09 11:41:18;;;;;;;3.33;3.03;;;11.70;99.90;;;;;;5014978;28;20471;-67
2023/10/09 11:43:58;;;;;;;4.43;4.03;;;11.70;99.90;;;;;;5010090;28;21544;-67
2023/10/09 11:46:47;;;;;;;3.23;3.03;;;11.70;99.90;;;;;;5018022;28;20545;-67
2023/10/09 11:49:34;;;;;;;3.27;3.07;;;11.80;99.90;;;;;;5010888;28;20509;-66
2023/10/09 11:54:56;;;;;;;4.40;4.10;;;11.90;99.90;;;;;;5025669;28;20487;-68
2023/10/09 11:57:30;;;;;;;4.47;4.17;;;11.80;99.90;;;;;;5018263;28;20487;-67
2023/10/09 11:59:59;;;;;;;4.37;4.03;;;11.90;99.90;;;;;;5018852;28;20474;-68
2023/10/09 12:02:28;;;;;;;4.03;3.73;;;11.90;99.90;;;;;;5020025;28;20497;-67
2023/10/09 12:04:56;;;;;;;4.30;4.00;;;11.90;99.90;;;;;;5015634;28;20483;-68
2023/10/09 12:07:27;;;;;;;5.00;4.47;;;12.00;99.90;;;;;;5022884;28;20496;-68
2023/10/09 12:09:57;;;;;;;4.83;4.43;;;12.00;99.90;;;;;;5021203;28;20475;-68
2023/10/09 12:12:26;;;;;;;4.43;4.03;;;12.10;99.90;;;;;;5016285;28;20551;-68
2023/10/09 12:14:54;;;;;;;4.90;4.60;;;12.10;99.90;;;;;;5016477;28;20576;-67
2023/10/09 12:17:25;;;;;;;4.80;4.40;;;12.10;99.90;;;;;;5015692;28;20568;-68
2023/10/09 12:19:56;;;;;;;4.20;3.90;;;12.20;99.90;;;;;;5013604;28;20976;-68
2023/10/09 12:22:27;;;;;;;4.10;3.80;;;12.20;99.90;;;;;;5023205;28;20489;-67
2023/10/09 12:24:56;;;;;;;4.30;3.90;;;12.20;99.90;;;;;;5022096;28;20866;-67
2023/10/09 12:27:25;;;;;;;4.33;4.03;;;12.20;99.90;;;;;;5017248;28;20534;-67
2023/10/09 12:29:56;;;;;;;4.50;4.10;;;12.30;99.90;;;;;;5013674;28;20493;-67
2023/10/09 12:32:24;;;;;;;4.53;4.13;;;12.30;99.90;;;;;;5018896;28;20593;-67
2023/10/09 12:34:52;;;;;;;5.13;4.63;;;12.40;99.90;;;;;;5016936;28;20491;-67
2023/10/09 12:37:20;;;;;;;5.07;4.57;;;12.40;99.90;;;;;;5032269;28;20479;-67
2023/10/09 12:39:55;;;;;;;4.23;3.93;;;12.40;99.90;;;;;;5019526;28;20462;-68
2023/10/09 12:42:23;;;;;;;4.27;3.97;;;12.40;99.90;;;;;;5021512;28;20568;-67
2023/10/09 12:44:51;;;;;;;5.47;4.97;;;12.50;99.90;;;;;;5017637;28;20609;-67
2023/10/09 12:47:19;;;;;;;5.90;5.40;;;12.40;99.90;;;;;;5019106;28;20498;-67
2023/10/09 12:49:48;;;;;;;6.43;5.83;;;12.40;99.90;;;;;;5015065;28;20549;-67
2023/10/09 12:52:16;;;;;;;5.40;4.93;;;12.40;99.90;;;;;;5026566;28;20463;-67
2023/10/09 12:54:46;;;;;;;5.77;5.23;;;12.40;99.90;;;;;;5019259;28;20585;-68
2023/10/09 12:57:16;;;;;;;4.13;3.73;;;12.40;99.90;;;;;;5026157;28;20534;-68
2023/10/09 12:59:45;;;;;;;4.40;4.07;;;12.40;99.90;;;;;;5026383;28;20616;-68
2023/10/09 13:02:27;;;;;;;6.33;5.83;;;12.40;99.90;;;;;;5018419;28;20471;-67
2023/10/09 13:04:57;;;;;;;5.30;4.80;;;12.40;99.90;;;;;;5020420;28;20486;-68
2023/10/09 13:07:25;;;;;;;3.87;3.60;;;12.50;99.90;;;;;;5013933;28;20536;-67
2023/10/09 13:12:41;;;;;;;3.80;3.50;;;12.50;99.90;;;;;;5013436;28;20478;-67
2023/10/09 13:15:10;;;;;;;5.00;4.60;;;12.50;99.90;;;;;;5006572;28;20490;-67
2023/10/09 13:17:39;;;;;;;4.10;3.80;;;12.50;99.90;;;;;;5010738;28;20483;-67
2023/10/09 13:20:12;;;;;;;4.93;4.00;;;12.50;99.90;;;;;;5010878;28;22264;-67
2023/10/09 13:22:41;;;;;;;4.20;3.90;;;12.60;99.90;;;;;;4999577;28;20558;-67
2023/10/09 13:25:16;;;;;;;3.90;3.60;;;12.60;99.90;;;;;;5011695;28;21099;-67
2023/10/09 13:28:03;;;;;;;3.90;3.60;;;12.60;99.90;;;;;;5007646;28;20549;-67
2023/10/09 13:30:38;;;;;;;5.00;4.07;;;12.70;99.90;;;;;;5014108;28;20553;-66
2023/10/09 13:33:07;;;;;;;3.77;3.50;;;12.70;99.90;;;;;;5013946;28;20653;-66
2023/10/09 13:35:44;;;;;;;4.67;4.27;;;12.70;99.90;;;;;;5002698;28;20495;-66
2023/10/09 13:38:12;;;;;;;4.60;4.20;;;12.80;99.90;;;;;;5013190;28;20463;-67
2023/10/09 13:40:40;;;;;;;5.03;4.40;;;12.80;99.90;;;;;;5000478;28;20530;-66
2023/10/09 13:43:16;;;;;;;4.20;3.90;;;12.90;99.90;;;;;;5000025;28;20498;-65
2023/10/09 13:45:49;;;;;;;5.20;4.90;;;12.90;99.90;;;;;;5004744;28;20616;-66
2023/10/09 13:48:20;;;;;;;4.40;4.10;;;13.00;99.90;;;;;;5009100;28;20487;-67
2023/10/09 13:50:49;;;;;;;4.70;4.30;;;13.00;99.90;;;;;;5004723;28;21134;-66
2023/10/09 13:53:17;;;;;;;4.33;4.03;;;13.00;99.90;;;;;;5005625;28;20499;-67
2023/10/09 13:55:47;;;;;;;5.20;4.80;;;13.00;99.90;;;;;;5004466;28;20520;-67
2023/10/09 13:58:20;;;;;;;5.37;4.97;;;13.00;99.90;;;;;;5005324;28;20562;-67
2023/10/09 14:00:50;;;;;;;5.07;4.67;;;13.10;99.90;;;;;;5010444;28;20966;-67
2023/10/09 14:03:19;;;;;;;5.50;5.10;;;13.10;99.90;;;;;;5019007;28;20497;-67
2023/10/09 14:05:54;;;;;;;5.70;5.30;;;13.10;99.90;;;;;;5018245;28;21014;-67
2023/10/09 14:08:23;;;;;;;4.67;4.30;;;13.20;99.90;;;;;;5016268;28;20492;-67
2023/10/09 14:10:51;;;;;;;5.70;5.30;;;13.20;99.90;;;;;;5014896;28;20569;-67
2023/10/09 14:13:25;;;;;;;5.83;5.43;;;13.20;99.90;;;;;;5018778;28;20498;-67
2023/10/09 14:15:55;;;;;;;5.87;5.37;;;13.20;99.90;;;;;;5012543;28;20567;-67
2023/10/09 14:18:24;;;;;;;6.33;5.83;;;13.20;99.90;;;;;;5014430;28;20462;-67
2023/10/09 14:20:56;;;;;;;6.60;6.10;;;13.20;99.90;;;;;;5015229;28;21118;-67
2023/10/09 14:23:32;;;;;;;5.90;5.40;;;13.20;99.90;;;;;;5014264;28;23738;-67
2023/10/09 14:26:01;;;;;;;7.07;6.37;;;13.20;99.90;;;;;;5013330;28;21204;-67
2023/10/09 14:28:31;;;;;;;6.63;6.17;;;13.20;99.90;;;;;;5013450;28;20610;-67
2023/10/09 14:31:00;;;;;;;7.83;7.13;;;13.30;99.90;;;;;;5018549;28;20475;-67
2023/10/09 14:33:36;;;;;;;7.13;6.63;;;13.30;99.90;;;;;;5024587;28;20499;-66
2023/10/09 14:36:05;;;;;;;7.40;6.80;;;13.30;99.90;;;;;;5013119;28;20585;-67
2023/10/09 14:38:38;;;;;;;8.90;8.10;;;13.30;99.90;;;;;;5012351;28;20741;-67
2023/10/09 14:41:11;;;;;;;7.53;6.93;;;13.30;99.90;;;;;;5016878;28;20475;-67
2023/10/09 14:43:42;;;;;;;8.97;8.17;;;13.30;99.90;;;;;;5022002;28;21076;-67
2023/10/09 14:46:14;;;;;;;8.00;7.30;;;13.30;99.90;;;;;;5016490;28;21439;-67
2023/10/09 14:48:45;;;;;;;8.53;7.73;;;13.30;99.90;;;;;;5013056;28;20522;-67